Time;durP1;ratioP1;P1;durP2;ratioP2;P2;SDS_P1;SDS_P2;PMS_P1;PMS_P2;Temp;Humidity;BMP_temperature;BMP_pressure;BME280_temperature;BME280_humidity;BME280_pressure;Samples;Min_cycle;Max_cycle;Signal;HPM_P1;HPM_P2
2024/01/04 00:02:09;;;;;;;2.77;2.30;;;24.30;76.20;;;;;;4961045;28;92072;-66
2024/01/04 00:04:37;;;;;;;3.27;2.17;;;24.20;75.00;;;;;;4958623;28;91336;-66
2024/01/04 00:07:06;;;;;;;4.40;2.90;;;24.20;75.00;;;;;;4957755;28;95554;-66
2024/01/04 00:09:34;;;;;;;4.17;2.97;;;24.20;71.30;;;;;;4957385;28;93981;-66
2024/01/04 00:12:03;;;;;;;7.90;2.57;;;24.20;73.20;;;;;;4957661;28;93028;-66
2024/01/04 00:14:31;;;;;;;3.17;2.87;;;24.10;70.60;;;;;;4957764;28;92078;-66
2024/01/04 00:16:59;;;;;;;5.03;2.63;;;24.10;69.80;;;;;;4969974;28;94320;-65
2024/01/04 00:19:27;;;;;;;9.97;4.13;;;24.10;73.80;;;;;;4977138;28;93772;-66
2024/01/04 00:21:55;;;;;;;4.10;2.43;;;24.10;69.10;;;;;;4977589;28;92160;-65
2024/01/04 00:24:24;;;;;;;6.93;3.70;;;24.00;73.10;;;;;;4977018;28;92072;-65
2024/01/04 00:26:52;;;;;;;6.37;2.80;;;24.00;76.00;;;;;;4976988;28;94204;-66
2024/01/04 00:29:20;;;;;;;6.47;3.80;;;24.00;69.60;;;;;;4976865;28;96723;-66
2024/01/04 00:31:48;;;;;;;4.47;3.00;;;24.00;75.50;;;;;;4967612;28;92048;-66
2024/01/04 00:34:16;;;;;;;12.00;3.33;;;24.00;66.80;;;;;;4957607;28;92154;-65
2024/01/04 00:36:45;;;;;;;8.23;3.80;;;24.00;68.90;;;;;;4957617;28;95069;-67
2024/01/04 00:39:13;;;;;;;6.13;3.70;;;23.90;71.40;;;;;;4957872;28;95060;-66
2024/01/04 00:41:42;;;;;;;9.30;4.00;;;23.80;72.20;;;;;;4958458;28;91871;-66
2024/01/04 00:44:10;;;;;;;5.73;3.87;;;23.90;77.20;;;;;;4962811;28;92067;-66
2024/01/04 00:46:38;;;;;;;7.37;4.07;;;23.80;64.20;;;;;;4968996;28;94243;-65
2024/01/04 00:49:06;;;;;;;12.17;4.90;;;23.80;65.00;;;;;;4981825;28;93861;-65
2024/01/04 00:51:35;;;;;;;7.33;4.77;;;23.80;66.10;;;;;;4983186;28;91882;-65
2024/01/04 00:54:03;;;;;;;6.27;4.20;;;23.80;68.80;;;;;;4983124;28;91333;-65
2024/01/04 00:56:34;;;;;;;5.30;4.03;;;23.80;70.70;;;;;;4978852;28;96515;-66
2024/01/04 00:59:03;;;;;;;7.97;4.67;;;23.80;80.10;;;;;;4961362;28;93813;-66
2024/01/04 01:01:32;;;;;;;6.23;4.43;;;23.70;65.80;;;;;;4961136;28;92988;-66
2024/01/04 01:04:00;;;;;;;11.50;4.57;;;23.70;66.50;;;;;;4960994;28;92049;-66
2024/01/04 01:06:28;;;;;;;7.67;4.90;;;23.70;68.40;;;;;;4960353;28;93980;-66
2024/01/04 01:08:56;;;;;;;6.53;4.83;;;23.70;71.00;;;;;;4960627;28;93869;-66
2024/01/04 01:11:24;;;;;;;8.07;5.27;;;23.70;76.10;;;;;;4961711;28;91903;-66
2024/01/04 01:13:53;;;;;;;5.67;4.27;;;23.70;74.30;;;;;;4979788;28;92077;-65
2024/01/04 01:16:22;;;;;;;6.47;4.87;;;23.70;69.30;;;;;;4979143;28;94245;-66
2024/01/04 01:18:50;;;;;;;7.73;4.53;;;23.60;74.70;;;;;;4961166;28;93703;-66
2024/01/04 01:21:18;;;;;;;7.17;4.67;;;23.70;73.70;;;;;;4960917;28;91805;-66
2024/01/04 01:23:46;;;;;;;6.47;4.40;;;23.70;76.10;;;;;;4961102;28;92053;-66
2024/01/04 01:26:14;;;;;;;8.93;4.80;;;23.60;69.50;;;;;;4960113;28;95183;-66
2024/01/04 01:28:42;;;;;;;8.23;4.70;;;23.60;81.10;;;;;;4960637;28;95000;-66
2024/01/04 01:31:10;;;;;;;7.33;5.13;;;23.60;70.50;;;;;;4960329;28;92106;-66
2024/01/04 01:33:42;;;;;;;7.83;5.17;;;23.60;78.70;;;;;;4977342;28;92016;-66
2024/01/04 01:36:10;;;;;;;10.60;6.27;;;23.60;72.10;;;;;;4979667;28;94290;-66
2024/01/04 01:38:39;;;;;;;6.60;4.77;;;23.60;81.20;;;;;;4979371;28;93886;-66
2024/01/04 01:41:07;;;;;;;9.37;5.50;;;23.60;74.90;;;;;;4980899;28;91891;-66
2024/01/04 01:43:35;;;;;;;9.00;5.97;;;23.50;72.70;;;;;;4968888;28;91326;-66
2024/01/04 01:46:03;;;;;;;8.30;5.40;;;23.50;80.60;;;;;;4959604;28;93035;-66
2024/01/04 01:48:32;;;;;;;9.03;5.57;;;23.50;78.10;;;;;;4959151;28;93765;-66
2024/01/04 01:51:01;;;;;;;11.53;6.13;;;23.50;80.50;;;;;;4960041;28;93599;-66
2024/01/04 01:53:29;;;;;;;8.33;5.07;;;23.40;75.00;;;;;;4960093;28;92067;-66
2024/01/04 01:55:57;;;;;;;10.00;6.03;;;23.40;77.30;;;;;;4960616;28;94259;-66
2024/01/04 01:58:25;;;;;;;11.77;6.77;;;23.40;76.30;;;;;;4960529;28;94144;-66
2024/01/04 02:00:53;;;;;;;7.57;5.20;;;23.40;77.00;;;;;;4959809;28;92142;-66
2024/01/04 02:03:21;;;;;;;7.17;5.00;;;23.40;71.80;;;;;;4959111;28;92090;-66
2024/01/04 02:05:49;;;;;;;11.30;5.33;;;23.40;77.10;;;;;;4959419;28;94337;-66
2024/01/04 02:08:18;;;;;;;6.57;4.37;;;23.40;77.30;;;;;;4959777;28;93928;-66
2024/01/04 02:10:47;;;;;;;13.00;5.13;;;23.30;74.40;;;;;;4960061;28;92070;-66
2024/01/04 02:13:15;;;;;;;6.87;5.10;;;23.30;74.80;;;;;;4959731;28;92106;-66
2024/01/04 02:15:43;;;;;;;7.50;4.87;;;23.30;76.80;;;;;;4958468;28;95240;-66
2024/01/04 02:18:11;;;;;;;12.27;6.10;;;23.30;76.10;;;;;;4959302;28;94686;-66
2024/01/04 02:20:40;;;;;;;7.80;5.00;;;23.30;76.10;;;;;;4959649;28;92164;-66
2024/01/04 02:23:16;;;;;;;6.60;5.00;;;23.30;76.40;;;;;;4959955;28;92113;-66
2024/01/04 02:25:44;;;;;;;9.43;4.90;;;23.30;78.10;;;;;;4959538;28;94270;-66
2024/01/04 02:28:12;;;;;;;7.10;4.97;;;;;;;;;;4958875;28;93911;-66
2024/01/04 02:30:40;;;;;;;6.00;3.70;;;23.30;80.10;;;;;;4959993;28;92233;-66
2024/01/04 02:33:08;;;;;;;6.27;4.87;;;23.30;70.60;;;;;;4959175;28;91357;-65
2024/01/04 02:35:37;;;;;;;7.23;4.17;;;23.20;78.70;;;;;;4959485;28;94098;-66
2024/01/04 02:38:05;;;;;;;6.67;4.53;;;23.20;68.40;;;;;;4956622;28;93953;-65
2024/01/04 02:40:35;;;;;;;9.77;4.87;;;23.20;69.80;;;;;;4955528;28;93066;-65
2024/01/04 02:43:09;;;;;;;6.87;4.00;;;23.20;72.60;;;;;;4956672;28;92421;-66
2024/01/04 02:45:37;;;;;;;4.17;3.67;;;23.20;78.50;;;;;;4956009;28;94127;-65
2024/01/04 02:48:06;;;;;;;7.07;4.37;;;23.20;79.20;;;;;;4958211;28;93971;-64
2024/01/04 02:50:34;;;;;;;5.37;4.20;;;23.20;76.80;;;;;;4976218;28;92624;-65
2024/01/04 02:53:02;;;;;;;5.97;3.80;;;23.20;74.20;;;;;;4976632;28;92045;-65
2024/01/04 02:55:30;;;;;;;5.17;4.27;;;23.20;68.90;;;;;;4976175;28;94013;-65
2024/01/04 02:58:00;;;;;;;8.50;4.47;;;23.20;78.60;;;;;;4961558;28;94149;-66
2024/01/04 03:00:28;;;;;;;6.77;4.37;;;23.10;80.10;;;;;;4973977;28;92647;-66
2024/01/04 03:02:56;;;;;;;5.90;3.50;;;23.10;79.80;;;;;;4958645;28;92892;-65
2024/01/04 03:05:24;;;;;;;5.53;3.93;;;23.10;79.70;;;;;;4957496;28;95154;-65
2024/01/04 03:07:52;;;;;;;6.20;4.07;;;23.10;73.20;;;;;;4955458;28;94981;-66
2024/01/04 03:10:20;;;;;;;7.10;3.30;;;23.10;72.00;;;;;;4971336;28;92692;-65
2024/01/04 03:12:48;;;;;;;6.30;3.70;;;23.10;70.60;;;;;;4961973;28;93124;-66
2024/01/04 03:15:17;;;;;;;5.67;3.87;;;23.10;81.00;;;;;;4955447;28;94156;-65
2024/01/04 03:17:45;;;;;;;6.03;3.57;;;23.10;74.50;;;;;;4955562;28;93641;-65
2024/01/04 03:20:14;;;;;;;5.23;3.70;;;23.10;74.80;;;;;;4955323;28;92203;-66
2024/01/04 03:22:42;;;;;;;6.07;3.00;;;23.10;79.80;;;;;;4959337;28;91863;-66
2024/01/04 03:25:10;;;;;;;3.77;3.30;;;23.10;74.10;;;;;;4955159;28;94231;-66
2024/01/04 03:27:39;;;;;;;5.80;3.47;;;;;;;;;;4955741;28;93827;-66
2024/01/04 03:30:08;;;;;;;3.93;3.27;;;23.10;74.60;;;;;;4955854;28;93572;-66
2024/01/04 03:32:38;;;;;;;5.07;3.90;;;23.00;74.20;;;;;;4954837;28;92122;-66
2024/01/04 03:35:08;;;;;;;3.37;2.70;;;23.00;72.90;;;;;;4955637;28;94525;-66
2024/01/04 03:37:36;;;;;;;5.43;3.33;;;23.00;72.20;;;;;;4954844;28;93951;-66
2024/01/04 03:40:06;;;;;;;4.43;3.00;;;23.00;72.70;;;;;;4955754;28;92209;-65
2024/01/04 03:42:35;;;;;;;4.47;2.40;;;23.00;77.40;;;;;;4956512;28;92119;-66
2024/01/04 03:45:03;;;;;;;5.50;3.07;;;23.00;71.00;;;;;;4967577;28;96716;-65
2024/01/04 03:47:31;;;;;;;3.03;2.20;;;23.00;74.50;;;;;;4955152;28;94104;-65
2024/01/04 03:50:02;;;;;;;3.00;2.60;;;22.90;71.90;;;;;;4956410;28;92611;-66
2024/01/04 03:52:31;;;;;;;2.53;2.20;;;22.90;76.70;;;;;;4955210;28;92117;-66
2024/01/04 03:54:59;;;;;;;4.67;2.30;;;22.90;77.20;;;;;;4958072;28;95132;-66
2024/01/04 03:57:27;;;;;;;4.10;2.40;;;22.90;70.10;;;;;;4954988;28;94874;-66
2024/01/04 03:59:55;;;;;;;5.33;2.30;;;22.90;74.10;;;;;;4959679;28;92131;-66
2024/01/04 04:02:23;;;;;;;3.63;2.83;;;22.90;75.70;;;;;;4955358;28;92318;-66
2024/01/04 04:04:51;;;;;;;2.57;2.20;;;22.90;75.80;;;;;;4969495;28;94296;-65
2024/01/04 04:07:20;;;;;;;3.27;2.60;;;22.90;73.80;;;;;;4952255;28;92586;-66
2024/01/04 04:09:48;;;;;;;3.23;2.20;;;22.90;75.60;;;;;;4956064;28;92098;-66
2024/01/04 04:12:16;;;;;;;4.07;2.20;;;22.90;75.00;;;;;;4958168;28;91499;-66
2024/01/04 04:14:45;;;;;;;4.50;2.70;;;22.90;76.90;;;;;;4970718;28;94293;-66
2024/01/04 04:17:14;;;;;;;2.80;2.07;;;22.80;75.50;;;;;;4957568;28;94065;-66
2024/01/04 04:19:42;;;;;;;2.97;2.00;;;22.80;75.20;;;;;;4971838;28;93029;-66
2024/01/04 04:22:10;;;;;;;2.23;2.00;;;22.80;76.30;;;;;;4957287;28;92164;-66
2024/01/04 04:24:40;;;;;;;4.00;1.93;;;22.80;75.50;;;;;;4968869;28;94267;-65
2024/01/04 04:27:08;;;;;;;4.87;2.20;;;22.80;75.10;;;;;;4958192;28;93830;-65
2024/01/04 04:29:39;;;;;;;3.43;1.73;;;22.80;76.80;;;;;;4957533;28;92285;-65
2024/01/04 04:32:08;;;;;;;2.03;1.87;;;22.80;76.80;;;;;;4976086;28;92031;-65
2024/01/04 04:34:36;;;;;;;2.87;1.60;;;22.80;74.70;;;;;;4964850;28;96090;-66
2024/01/04 04:37:04;;;;;;;3.67;2.23;;;22.80;71.10;;;;;;4974464;28;93943;-65
2024/01/04 04:39:32;;;;;;;3.97;2.03;;;22.70;74.30;;;;;;4977322;28;92063;-66
2024/01/04 04:42:02;;;;;;;1.60;1.50;;;22.80;77.00;;;;;;4961172;28;92239;-66
2024/01/04 04:44:30;;;;;;;2.80;1.73;;;22.70;74.60;;;;;;4964781;28;94417;-66
2024/01/04 04:46:58;;;;;;;5.73;2.13;;;22.70;75.40;;;;;;4962211;28;94863;-65
2024/01/04 04:49:28;;;;;;;2.27;1.57;;;22.70;75.70;;;;;;4966677;28;92064;-66
2024/01/04 04:51:56;;;;;;;2.13;1.13;;;22.70;71.40;;;;;;4962741;28;92034;-66
2024/01/04 04:54:25;;;;;;;2.43;1.57;;;22.70;71.50;;;;;;4956926;28;94176;-66
2024/01/04 04:56:53;;;;;;;3.43;1.93;;;22.70;71.40;;;;;;4957170;28;93538;-65
2024/01/04 04:59:23;;;;;;;1.40;1.30;;;22.70;70.50;;;;;;4961081;28;91907;-65
2024/01/04 05:01:52;;;;;;;1.53;1.37;;;22.70;70.90;;;;;;4978179;28;91401;-65
2024/01/04 05:04:20;;;;;;;1.20;1.00;;;22.70;71.40;;;;;;4973365;28;94251;-65
2024/01/04 05:06:48;;;;;;;2.50;1.47;;;22.70;75.60;;;;;;4976728;28;93823;-65
2024/01/04 05:09:17;;;;;;;1.47;1.37;;;22.70;76.60;;;;;;4975040;28;93005;-65
2024/01/04 05:11:46;;;;;;;1.97;1.73;;;22.70;80.60;;;;;;4957185;28;92973;-65
2024/01/04 05:14:14;;;;;;;1.37;1.20;;;22.60;75.30;;;;;;4958979;28;94271;-65
2024/01/04 05:16:44;;;;;;;1.63;1.40;;;;;;;;;;4956471;28;93781;-65
2024/01/04 05:19:12;;;;;;;1.57;1.47;;;22.40;75.60;;;;;;4958501;28;91906;-65
2024/01/04 05:21:41;;;;;;;1.30;1.20;;;22.60;69.70;;;;;;4957637;28;91891;-66
2024/01/04 05:24:09;;;;;;;0.83;0.83;;;22.60;78.40;;;;;;4961589;28;94047;-65
2024/01/04 05:26:37;;;;;;;3.30;1.40;;;22.60;78.70;;;;;;4958975;28;93840;-65
2024/01/04 05:29:05;;;;;;;1.00;0.80;;;22.60;73.10;;;;;;4957903;28;92149;-66
2024/01/04 05:31:33;;;;;;;1.87;0.80;;;22.50;71.00;;;;;;4959367;28;92465;-66
2024/01/04 05:34:03;;;;;;;2.07;1.20;;;22.60;70.50;;;;;;4959933;28;94043;-65
2024/01/04 05:36:31;;;;;;;0.90;0.90;;;22.60;70.70;;;;;;4965760;28;94740;-66
2024/01/04 05:38:59;;;;;;;1.73;1.23;;;22.60;78.50;;;;;;4961274;28;92078;-65
2024/01/04 05:41:28;;;;;;;1.37;1.13;;;;;;;;;;4960672;28;91987;-65
2024/01/04 05:43:56;;;;;;;1.43;1.30;;;22.60;77.80;;;;;;4960225;28;94351;-66
2024/01/04 05:46:24;;;;;;;1.37;1.10;;;22.50;71.10;;;;;;4964986;28;94081;-66
2024/01/04 05:48:52;;;;;;;0.97;0.83;;;22.50;71.60;;;;;;4960467;28;92133;-66
2024/01/04 05:51:22;;;;;;;1.53;1.00;;;22.60;83.90;;;;;;4960638;28;91360;-66
2024/01/04 05:53:50;;;;;;;0.97;0.87;;;;;;;;;;4960375;28;94167;-65
2024/01/04 05:56:18;;;;;;;0.60;0.60;;;;;;;;;;4959676;28;93894;-65
2024/01/04 05:58:46;;;;;;;1.07;0.73;;;22.60;81.30;;;;;;4960489;28;92952;-65
2024/01/04 06:01:16;;;;;;;1.47;0.90;;;;;;;;;;4967954;28;92158;-65
2024/01/04 06:03:44;;;;;;;0.90;0.90;;;22.50;72.70;;;;;;4979259;28;94417;-65
2024/01/04 06:06:14;;;;;;;0.50;0.50;;;22.50;71.40;;;;;;4971549;28;93877;-65
2024/01/04 06:08:44;;;;;;;1.83;0.90;;;22.60;84.10;;;;;;4979787;28;92079;-66
2024/01/04 06:11:12;;;;;;;0.97;0.97;;;;;;;;;;4971071;28;92071;-65
2024/01/04 06:13:40;;;;;;;0.47;0.47;;;22.70;76.70;;;;;;4959604;28;94181;-65
2024/01/04 06:16:07;;;;;;;1.47;1.37;;;22.40;75.70;;;;;;4959266;28;93878;-66
2024/01/04 06:18:36;;;;;;;2.80;0.90;;;;;;;;;;4959950;28;91913;-65
2024/01/04 06:21:05;;;;;;;0.80;0.80;;;22.50;89.30;;;;;;4965408;28;92186;-65
2024/01/04 06:23:33;;;;;;;1.47;1.00;;;22.40;79.90;;;;;;4978000;28;95330;-65
2024/01/04 06:26:02;;;;;;;1.10;0.80;;;;;;;;;;4974612;28;94947;-65
2024/01/04 06:28:30;;;;;;;0.67;0.67;;;23.30;71.20;;;;;;4968655;28;92078;-64
2024/01/04 06:30:58;;;;;;;1.07;0.97;;;22.40;60.20;;;;;;4978961;28;92228;-64
2024/01/04 06:33:27;;;;;;;1.60;0.93;;;22.40;60.40;;;;;;4970145;28;94164;-65
2024/01/04 06:35:55;;;;;;;0.67;0.60;;;22.40;60.70;;;;;;4958876;28;94290;-65
2024/01/04 06:38:26;;;;;;;0.70;0.70;;;22.40;61.10;;;;;;4959086;28;92108;-65
2024/01/04 06:40:57;;;;;;;1.60;0.63;;;22.40;61.30;;;;;;4938858;28;91627;-64
2024/01/04 06:43:27;;;;;;;1.03;0.70;;;22.40;61.60;;;;;;4945685;28;94738;-65
2024/01/04 06:45:55;;;;;;;0.77;0.67;;;22.40;62.10;;;;;;4959199;28;93916;-65
2024/01/04 06:48:23;;;;;;;0.40;0.40;;;22.50;62.10;;;;;;4958868;28;93019;-65
2024/01/04 06:50:51;;;;;;;0.50;0.50;;;22.50;62.20;;;;;;4976834;28;92414;-65
2024/01/04 06:53:20;;;;;;;0.53;0.50;;;22.50;62.30;;;;;;4958694;28;94164;-64
2024/01/04 06:55:48;;;;;;;0.77;0.40;;;22.50;62.40;;;;;;4957944;28;93856;-64
2024/01/04 06:58:16;;;;;;;1.23;0.70;;;22.60;62.40;;;;;;4959483;28;91958;-64
2024/01/04 07:00:45;;;;;;;0.43;0.43;;;22.70;62.60;;;;;;4958273;28;92124;-65
2024/01/04 07:03:13;;;;;;;0.70;0.70;;;22.80;62.40;;;;;;4960094;28;94265;-64
2024/01/04 07:05:42;;;;;;;0.80;0.70;;;23.00;62.60;;;;;;4959299;28;93533;-65
2024/01/04 07:08:10;;;;;;;0.70;0.70;;;23.20;62.40;;;;;;4959859;28;91917;-65
2024/01/04 07:10:40;;;;;;;0.50;0.47;;;23.40;62.40;;;;;;4972819;28;92058;-65
2024/01/04 07:13:08;;;;;;;0.90;0.67;;;23.60;62.30;;;;;;4977815;28;93842;-65
2024/01/04 07:15:36;;;;;;;1.43;0.93;;;23.80;62.40;;;;;;4973683;28;94789;-65
2024/01/04 07:18:06;;;;;;;1.03;0.77;;;24.00;62.20;;;;;;4965828;28;92052;-66
2024/01/04 07:20:34;;;;;;;0.50;0.47;;;24.10;61.90;;;;;;4963946;28;91983;-65
2024/01/04 07:23:03;;;;;;;0.87;0.57;;;24.20;62.70;;;;;;4978870;28;94130;-65
2024/01/04 07:25:34;;;;;;;0.60;0.60;;;24.30;61.90;;;;;;4975918;28;92710;-64
2024/01/04 07:28:03;;;;;;;0.77;0.40;;;24.30;62.00;;;;;;4976167;28;92068;-65
2024/01/04 07:30:31;;;;;;;0.40;0.40;;;24.40;62.30;;;;;;4959207;28;91404;-65
2024/01/04 07:32:59;;;;;;;0.50;0.50;;;24.40;62.50;;;;;;4958030;28;94324;-65
2024/01/04 07:35:32;;;;;;;0.73;0.60;;;24.30;62.80;;;;;;4966934;28;93892;-65
2024/01/04 07:38:00;;;;;;;1.23;0.57;;;24.30;63.00;;;;;;4957797;28;92959;-64
2024/01/04 07:40:28;;;;;;;1.43;0.70;;;24.30;63.10;;;;;;4968367;28;92100;-64
2024/01/04 07:42:56;;;;;;;1.37;0.47;;;24.20;63.40;;;;;;4978279;28;94323;-65
2024/01/04 07:45:24;;;;;;;2.30;0.80;;;24.20;64.70;;;;;;4970479;28;93885;-67
2024/01/04 07:47:52;;;;;;;1.47;0.67;;;24.10;64.30;;;;;;4978816;28;91882;-65
2024/01/04 07:50:20;;;;;;;1.03;0.80;;;24.10;65.10;;;;;;4969197;28;92159;-64
2024/01/04 07:52:49;;;;;;;1.00;0.80;;;24.10;65.90;;;;;;4958786;28;94338;-64
2024/01/04 07:55:19;;;;;;;1.60;0.97;;;23.80;67.40;;;;;;4958037;28;93822;-65
2024/01/04 07:57:48;;;;;;;1.77;1.03;;;24.00;72.80;;;;;;4958561;28;91997;-64
2024/01/04 08:00:17;;;;;;;1.50;1.10;;;23.90;66.60;;;;;;4962540;28;92023;-64
2024/01/04 08:02:45;;;;;;;2.50;1.40;;;24.00;66.50;;;;;;4977860;28;97853;-65
2024/01/04 08:05:13;;;;;;;1.63;1.30;;;23.90;69.00;;;;;;4969357;28;94895;-64
2024/01/04 08:07:43;;;;;;;1.80;1.53;;;23.90;69.50;;;;;;4977275;28;92108;-64
2024/01/04 08:10:13;;;;;;;1.17;1.10;;;23.90;70.90;;;;;;4976277;28;92090;-64
2024/01/04 08:12:41;;;;;;;1.57;1.30;;;23.80;73.60;;;;;;4958456;28;94199;-64
2024/01/04 08:15:11;;;;;;;1.60;1.43;;;23.80;75.50;;;;;;4958644;28;93899;-64
2024/01/04 08:17:39;;;;;;;1.90;1.10;;;23.80;76.30;;;;;;4959003;28;92045;-65
2024/01/04 08:20:09;;;;;;;1.60;1.40;;;23.80;76.40;;;;;;4958451;28;91424;-65
2024/01/04 08:22:38;;;;;;;2.03;1.40;;;23.70;74.20;;;;;;4958090;28;94491;-65
2024/01/04 08:25:06;;;;;;;1.97;1.40;;;23.70;75.00;;;;;;4956929;28;94059;-65
2024/01/04 08:27:36;;;;;;;2.30;1.70;;;23.60;75.00;;;;;;4937849;28;93108;-65
2024/01/04 08:30:04;;;;;;;1.67;1.37;;;23.70;68.20;;;;;;4947691;28;92069;-64
2024/01/04 08:32:32;;;;;;;1.83;1.50;;;23.70;69.70;;;;;;4957314;28;96955;-65
2024/01/04 08:35:00;;;;;;;4.03;1.73;;;23.60;70.60;;;;;;4957729;28;93908;-64
2024/01/04 08:37:28;;;;;;;1.47;1.23;;;23.60;68.60;;;;;;4975974;28;91969;-64
2024/01/04 08:39:56;;;;;;;2.97;1.93;;;23.60;70.10;;;;;;4977600;28;91952;-64
2024/01/04 08:42:24;;;;;;;1.87;1.63;;;23.60;68.90;;;;;;4961493;28;94127;-65
2024/01/04 08:44:54;;;;;;;4.20;1.63;;;23.50;70.10;;;;;;4957380;28;93878;-64
2024/01/04 08:47:23;;;;;;;3.00;1.90;;;23.50;68.30;;;;;;4956193;28;92399;-64
2024/01/04 08:49:51;;;;;;;2.17;1.83;;;23.50;51.40;;;;;;4972398;28;92103;-64
2024/01/04 08:52:19;;;;;;;2.23;1.77;;;23.40;53.50;;;;;;4959065;28;95181;-64
2024/01/04 08:54:47;;;;;;;1.90;1.53;;;23.40;53.80;;;;;;4964129;28;95004;-63
2024/01/04 08:57:15;;;;;;;1.70;1.47;;;23.40;53.90;;;;;;4958683;28;92086;-63
2024/01/04 08:59:44;;;;;;;2.20;1.40;;;23.30;54.00;;;;;;4958911;28;92963;-63
2024/01/04 09:02:13;;;;;;;2.67;1.43;;;23.30;54.10;;;;;;4957692;28;94428;-64
2024/01/04 09:04:41;;;;;;;2.10;1.40;;;23.30;54.10;;;;;;4958877;28;93786;-63
2024/01/04 09:07:09;;;;;;;1.23;1.13;;;23.30;54.20;;;;;;4961612;28;91944;-64
2024/01/04 09:09:37;;;;;;;2.87;2.13;;;23.30;54.10;;;;;;4961519;28;91358;-64
2024/01/04 09:12:06;;;;;;;2.10;1.17;;;23.40;54.20;;;;;;4960937;28;94193;-64
2024/01/04 09:14:34;;;;;;;2.87;1.50;;;23.20;54.20;;;;;;4960727;28;93864;-64
2024/01/04 09:17:02;;;;;;;1.67;1.43;;;23.30;54.20;;;;;;4960113;28;93109;-64
2024/01/04 09:19:31;;;;;;;2.70;1.93;;;23.30;54.30;;;;;;4960242;28;92175;-64
2024/01/04 09:21:59;;;;;;;3.13;2.10;;;23.20;54.30;;;;;;4960246;28;94192;-64
2024/01/04 09:24:27;;;;;;;1.70;1.43;;;23.20;54.30;;;;;;4960741;28;93708;-64
2024/01/04 09:26:55;;;;;;;2.43;1.97;;;23.20;54.30;;;;;;4960442;28;92389;-64
2024/01/04 09:29:23;;;;;;;4.77;1.97;;;23.20;54.40;;;;;;4960420;28;92080;-64
2024/01/04 09:31:51;;;;;;;3.53;1.53;;;23.20;54.40;;;;;;4960440;28;94088;-64
2024/01/04 09:34:19;;;;;;;2.77;2.00;;;23.20;54.40;;;;;;4960222;28;93630;-64
2024/01/04 09:36:49;;;;;;;2.00;1.80;;;23.20;54.40;;;;;;4960693;28;92214;-64
2024/01/04 09:39:18;;;;;;;3.20;1.40;;;23.20;55.20;;;;;;4960305;28;92082;-64
2024/01/04 09:41:47;;;;;;;2.50;1.70;;;23.20;54.60;;;;;;4959584;28;95231;-63
2024/01/04 09:44:15;;;;;;;2.37;2.03;;;23.20;54.60;;;;;;4959854;28;94685;-64
2024/01/04 09:46:43;;;;;;;2.83;2.07;;;23.10;54.60;;;;;;4960862;28;91928;-64
2024/01/04 09:49:13;;;;;;;4.03;2.13;;;23.10;54.60;;;;;;4960185;28;92048;-65
2024/01/04 09:51:42;;;;;;;2.07;1.87;;;23.10;54.60;;;;;;4960147;28;94599;-64
2024/01/04 09:54:11;;;;;;;2.10;1.90;;;23.10;54.70;;;;;;4965924;28;94150;-63
2024/01/04 09:56:42;;;;;;;3.03;1.97;;;23.00;54.70;;;;;;4961187;28;92139;-64
2024/01/04 09:59:10;;;;;;;4.50;1.57;;;23.10;54.80;;;;;;4967416;28;91245;-63
2024/01/04 10:01:38;;;;;;;2.83;1.97;;;23.10;54.80;;;;;;4969476;28;94369;-64
2024/01/04 10:04:07;;;;;;;1.70;1.50;;;23.10;54.80;;;;;;4959198;28;93811;-64
2024/01/04 10:06:37;;;;;;;0.83;0.83;;;23.20;55.00;;;;;;4969279;28;93101;-64
2024/01/04 10:09:16;;;;;;;1.70;1.50;;;23.10;54.90;;;;;;4959789;28;92122;-63
2024/01/04 10:11:56;;;;;;;3.27;1.87;;;23.00;54.90;;;;;;4959823;28;94610;-63
2024/01/04 10:14:24;;;;;;;2.73;1.63;;;23.00;55.40;;;;;;4966381;28;93909;-63
2024/01/04 10:16:52;;;;;;;2.37;1.50;;;23.00;54.80;;;;;;4959986;28;91995;-63
2024/01/04 10:19:20;;;;;;;2.53;1.57;;;23.00;54.80;;;;;;4958964;28;92150;-64
2024/01/04 10:21:48;;;;;;;2.97;1.80;;;23.00;54.90;;;;;;4958556;28;94194;-64
2024/01/04 10:24:23;;;;;;;3.03;1.57;;;23.00;54.90;;;;;;4977570;28;93831;-63
2024/01/04 10:26:57;;;;;;;1.57;1.47;;;23.00;55.00;;;;;;4975727;28;92107;-63
2024/01/04 10:29:26;;;;;;;3.37;1.70;;;23.00;55.00;;;;;;4959547;28;92916;-64
2024/01/04 10:32:00;;;;;;;4.80;1.50;;;23.00;54.90;;;;;;4970864;28;95111;-64
2024/01/04 10:34:28;;;;;;;1.53;1.40;;;23.00;55.10;;;;;;4962267;28;94851;-63
2024/01/04 10:37:09;;;;;;;1.40;1.30;;;23.00;55.00;;;;;;4963766;28;91906;-63
2024/01/04 10:39:38;;;;;;;4.50;2.50;;;22.90;54.90;;;;;;4979371;28;92037;-63
2024/01/04 10:42:08;;;;;;;4.10;1.70;;;23.00;55.10;;;;;;4978852;28;94193;-63
2024/01/04 10:44:36;;;;;;;6.67;2.23;;;23.00;55.10;;;;;;4962541;28;92679;-63
2024/01/04 10:47:05;;;;;;;5.03;2.27;;;22.90;55.20;;;;;;4959592;28;92016;-64
2024/01/04 10:49:33;;;;;;;3.10;2.20;;;23.00;55.20;;;;;;4962177;28;91332;-62
2024/01/04 10:52:02;;;;;;;5.63;2.27;;;23.00;55.30;;;;;;4959705;28;94249;-63
2024/01/04 10:54:32;;;;;;;1.60;1.50;;;22.90;55.30;;;;;;4958596;28;93797;-63
2024/01/04 10:57:02;;;;;;;5.10;2.20;;;22.90;55.30;;;;;;4959190;28;93069;-63
2024/01/04 10:59:32;;;;;;;4.60;2.07;;;22.90;55.30;;;;;;4961646;28;93206;-62
2024/01/04 11:02:00;;;;;;;9.87;2.07;;;22.90;55.40;;;;;;4958622;28;94235;-63
2024/01/04 11:04:29;;;;;;;3.67;2.60;;;22.90;55.40;;;;;;4958635;28;92788;-63
2024/01/04 11:06:58;;;;;;;6.40;2.40;;;22.90;55.40;;;;;;4959282;28;92040;-63
2024/01/04 11:09:26;;;;;;;2.67;1.90;;;22.90;56.10;;;;;;4973663;28;93606;-63
2024/01/04 11:11:56;;;;;;;2.53;1.93;;;22.90;55.40;;;;;;4977208;28;94127;-63
2024/01/04 11:14:26;;;;;;;5.23;2.13;;;22.90;55.60;;;;;;4956634;28;93808;-63
2024/01/04 11:17:06;;;;;;;5.90;2.77;;;22.90;55.60;;;;;;4962746;28;91967;-63
2024/01/04 11:19:40;;;;;;;7.30;3.63;;;23.00;55.60;;;;;;4958459;28;92262;-63
2024/01/04 11:22:16;;;;;;;25.60;10.47;;;23.00;55.60;;;;;;4957622;28;95019;-64
2024/01/04 11:25:06;;;;;;;53.67;23.77;;;23.10;55.60;;;;;;4957774;28;93644;-63
2024/01/04 11:27:34;;;;;;;33.40;14.70;;;23.10;55.60;;;;;;4958238;28;92037;-64
2024/01/04 11:30:04;;;;;;;20.43;10.67;;;23.20;55.60;;;;;;4975647;28;92159;-64
2024/01/04 11:32:32;;;;;;;21.63;8.87;;;23.20;55.60;;;;;;4967265;28;96660;-64
2024/01/04 11:35:03;;;;;;;17.17;8.93;;;23.20;55.70;;;;;;4955691;28;93991;-64
2024/01/04 11:37:32;;;;;;;25.03;11.20;;;23.20;55.60;;;;;;4961892;28;92033;-63
2024/01/04 11:40:03;;;;;;;19.97;10.23;;;23.20;55.80;;;;;;4970758;28;91392;-63
2024/01/04 11:42:36;;;;;;;17.77;9.37;;;23.20;55.80;;;;;;4957735;28;94763;-64
2024/01/04 11:45:07;;;;;;;33.27;9.93;;;23.20;55.70;;;;;;4970183;28;93880;-63
2024/01/04 11:47:37;;;;;;;16.50;8.93;;;23.10;55.70;;;;;;4957910;28;93123;-64
2024/01/04 11:50:14;;;;;;;18.83;8.43;;;23.10;55.70;;;;;;4962105;28;92090;-64
2024/01/04 11:52:47;;;;;;;16.37;8.77;;;23.00;55.80;;;;;;4958074;28;93167;-63
2024/01/04 11:55:24;;;;;;;16.90;8.43;;;23.10;55.90;;;;;;4958485;28;93580;-64
2024/01/04 11:57:52;;;;;;;16.47;8.03;;;23.00;55.90;;;;;;4958070;28;92032;-65
2024/01/04 12:00:23;;;;;;;13.60;8.10;;;23.10;55.80;;;;;;4956237;28;92108;-63
2024/01/04 12:02:51;;;;;;;19.63;8.70;;;23.00;55.80;;;;;;4934936;28;94132;-63
2024/01/04 12:05:19;;;;;;;17.20;9.50;;;23.00;55.90;;;;;;4975218;28;93880;-64
2024/01/04 12:07:47;;;;;;;15.60;8.70;;;23.00;55.80;;;;;;4958518;28;92536;-63
2024/01/04 12:10:16;;;;;;;14.37;7.93;;;23.00;55.90;;;;;;4962563;28;92137;-62
2024/01/04 12:12:44;;;;;;;18.60;7.80;;;23.00;56.20;;;;;;4956370;28;95686;-62
2024/01/04 12:15:13;;;;;;;12.17;8.00;;;22.90;55.80;;;;;;4968400;28;93654;-62
2024/01/04 12:17:42;;;;;;;14.80;7.07;;;22.90;55.80;;;;;;4958098;28;91955;-63
2024/01/04 12:20:12;;;;;;;16.63;8.07;;;22.90;55.80;;;;;;4971221;28;92044;-62
2024/01/04 12:22:40;;;;;;;12.57;6.97;;;22.90;55.80;;;;;;4969020;28;94202;-63
2024/01/04 12:25:09;;;;;;;14.73;8.07;;;22.90;55.80;;;;;;4957541;28;92770;-63
2024/01/04 12:27:37;;;;;;;11.77;7.17;;;22.90;55.80;;;;;;4963241;28;91979;-63
2024/01/04 12:30:08;;;;;;;12.43;6.57;;;22.90;55.80;;;;;;4976419;28;91368;-63
2024/01/04 12:32:36;;;;;;;10.33;7.67;;;22.90;55.70;;;;;;4969100;28;96149;-63
2024/01/04 12:35:07;;;;;;;10.43;5.93;;;22.90;55.80;;;;;;4963645;28;93937;-63
2024/01/04 12:37:35;;;;;;;10.37;6.67;;;22.90;55.80;;;;;;4970017;28;93058;-63
2024/01/04 12:40:07;;;;;;;17.73;6.90;;;22.80;55.80;;;;;;4978850;28;93274;-62
2024/01/04 12:42:35;;;;;;;13.57;6.87;;;22.80;55.80;;;;;;4977880;28;93067;-62
2024/01/04 12:45:04;;;;;;;14.63;6.00;;;22.80;55.80;;;;;;4970399;28;93874;-63
2024/01/04 12:47:32;;;;;;;15.20;7.20;;;22.80;55.70;;;;;;4971379;28;92234;-63
2024/01/04 12:50:00;;;;;;;13.90;6.63;;;22.80;55.80;;;;;;4972209;28;92023;-62
2024/01/04 12:52:30;;;;;;;9.90;6.40;;;22.80;55.80;;;;;;4970269;28;94243;-63
2024/01/04 12:54:58;;;;;;;9.23;5.87;;;22.80;55.80;;;;;;4961046;28;94166;-63
2024/01/04 12:57:26;;;;;;;9.60;5.47;;;22.80;55.80;;;;;;4961964;28;92249;-62